sensor_id;sensor_type;location;lat;lon;timestamp;P1;durP1;ratioP1;P2;durP2;ratioP2
17422;SDS011;8829;47.932;7.810;2023-04-15T00:01:22;0.90;;;0.90;;
17422;SDS011;8829;47.932;7.810;2023-04-15T00:03:50;0.70;;;0.70;;
17422;SDS011;8829;47.932;7.810;2023-04-15T00:06:19;0.80;;;0.80;;
17422;SDS011;8829;47.932;7.810;2023-04-15T00:08:46;2.30;;;1.13;;
17422;SDS011;8829;47.932;7.810;2023-04-15T00:11:14;4.57;;;1.10;;
17422;SDS011;8829;47.932;7.810;2023-04-15T00:13:42;0.80;;;0.80;;
17422;SDS011;8829;47.932;7.810;2023-04-15T00:16:09;1.43;;;1.33;;
17422;SDS011;8829;47.932;7.810;2023-04-15T00:18:36;0.87;;;0.80;;
17422;SDS011;8829;47.932;7.810;2023-04-15T00:21:03;1.60;;;0.90;;
17422;SDS011;8829;47.932;7.810;2023-04-15T00:23:31;1.00;;;0.90;;
17422;SDS011;8829;47.932;7.810;2023-04-15T00:25:58;0.80;;;0.80;;
17422;SDS011;8829;47.932;7.810;2023-04-15T00:28:25;0.80;;;0.80;;
17422;SDS011;8829;47.932;7.810;2023-04-15T00:30:52;1.30;;;0.90;;
17422;SDS011;8829;47.932;7.810;2023-04-15T00:33:18;0.70;;;0.70;;
17422;SDS011;8829;47.932;7.810;2023-04-15T00:35:45;0.93;;;0.70;;
17422;SDS011;8829;47.932;7.810;2023-04-15T00:38:12;2.47;;;1.13;;
17422;SDS011;8829;47.932;7.810;2023-04-15T00:40:40;0.77;;;0.77;;
17422;SDS011;8829;47.932;7.810;2023-04-15T00:43:07;1.23;;;1.13;;
17422;SDS011;8829;47.932;7.810;2023-04-15T00:45:34;0.80;;;0.80;;
17422;SDS011;8829;47.932;7.810;2023-04-15T00:48:01;0.80;;;0.80;;
17422;SDS011;8829;47.932;7.810;2023-04-15T00:50:28;1.43;;;0.87;;
17422;SDS011;8829;47.932;7.810;2023-04-15T00:52:55;0.93;;;0.93;;
17422;SDS011;8829;47.932;7.810;2023-04-15T00:55:21;3.13;;;1.00;;
17422;SDS011;8829;47.932;7.810;2023-04-15T00:57:50;1.33;;;0.80;;
17422;SDS011;8829;47.932;7.810;2023-04-15T01:00:17;2.20;;;0.80;;
17422;SDS011;8829;47.932;7.810;2023-04-15T01:02:45;1.80;;;1.10;;
17422;SDS011;8829;47.932;7.810;2023-04-15T01:05:12;2.20;;;0.80;;
17422;SDS011;8829;47.932;7.810;2023-04-15T01:07:41;0.87;;;0.80;;
17422;SDS011;8829;47.932;7.810;2023-04-15T01:10:08;1.17;;;0.80;;
17422;SDS011;8829;47.932;7.810;2023-04-15T01:12:35;2.70;;;1.00;;
17422;SDS011;8829;47.932;7.810;2023-04-15T01:15:05;0.70;;;0.70;;
17422;SDS011;8829;47.932;7.810;2023-04-15T01:17:33;1.10;;;1.00;;
17422;SDS011;8829;47.932;7.810;2023-04-15T01:20:00;0.90;;;0.90;;
17422;SDS011;8829;47.932;7.810;2023-04-15T01:22:29;1.30;;;0.77;;
17422;SDS011;8829;47.932;7.810;2023-04-15T01:24:58;2.00;;;1.37;;
17422;SDS011;8829;47.932;7.810;2023-04-15T01:27:31;1.17;;;1.00;;
17422;SDS011;8829;47.932;7.810;2023-04-15T01:29:59;0.70;;;0.70;;
17422;SDS011;8829;47.932;7.810;2023-04-15T01:32:27;0.90;;;0.90;;
17422;SDS011;8829;47.932;7.810;2023-04-15T01:34:55;2.07;;;0.80;;
17422;SDS011;8829;47.932;7.810;2023-04-15T01:37:21;3.70;;;1.00;;
17422;SDS011;8829;47.932;7.810;2023-04-15T01:39:48;1.00;;;0.90;;
17422;SDS011;8829;47.932;7.810;2023-04-15T01:42:15;0.90;;;0.70;;
17422;SDS011;8829;47.932;7.810;2023-04-15T01:44:43;0.90;;;0.70;;
17422;SDS011;8829;47.932;7.810;2023-04-15T01:47:10;0.70;;;0.70;;
17422;SDS011;8829;47.932;7.810;2023-04-15T01:49:37;0.70;;;0.70;;
17422;SDS011;8829;47.932;7.810;2023-04-15T01:52:04;1.30;;;0.70;;
17422;SDS011;8829;47.932;7.810;2023-04-15T01:54:30;1.33;;;0.80;;
17422;SDS011;8829;47.932;7.810;2023-04-15T01:56:57;2.93;;;1.07;;
17422;SDS011;8829;47.932;7.810;2023-04-15T01:59:24;1.33;;;0.93;;
17422;SDS011;8829;47.932;7.810;2023-04-15T02:01:52;1.83;;;1.00;;
17422;SDS011;8829;47.932;7.810;2023-04-15T02:04:20;1.10;;;1.00;;
17422;SDS011;8829;47.932;7.810;2023-04-15T02:06:47;1.33;;;1.20;;
17422;SDS011;8829;47.932;7.810;2023-04-15T02:09:13;1.20;;;0.83;;
17422;SDS011;8829;47.932;7.810;2023-04-15T02:11:40;1.93;;;1.07;;
17422;SDS011;8829;47.932;7.810;2023-04-15T02:14:07;1.47;;;0.93;;
17422;SDS011;8829;47.932;7.810;2023-04-15T02:16:34;1.27;;;0.80;;
17422;SDS011;8829;47.932;7.810;2023-04-15T02:19:02;2.10;;;0.77;;
17422;SDS011;8829;47.932;7.810;2023-04-15T02:21:28;1.63;;;0.80;;
17422;SDS011;8829;47.932;7.810;2023-04-15T02:23:55;1.40;;;0.93;;
17422;SDS011;8829;47.932;7.810;2023-04-15T02:26:22;1.90;;;0.93;;
17422;SDS011;8829;47.932;7.810;2023-04-15T02:28:50;2.73;;;0.70;;
17422;SDS011;8829;47.932;7.810;2023-04-15T02:31:16;1.67;;;0.83;;
17422;SDS011;8829;47.932;7.810;2023-04-15T02:33:43;0.80;;;0.80;;
17422;SDS011;8829;47.932;7.810;2023-04-15T02:36:12;1.73;;;1.10;;
17422;SDS011;8829;47.932;7.810;2023-04-15T02:38:38;0.87;;;0.80;;
17422;SDS011;8829;47.932;7.810;2023-04-15T02:41:07;2.13;;;0.80;;
17422;SDS011;8829;47.932;7.810;2023-04-15T02:43:34;4.50;;;1.10;;
17422;SDS011;8829;47.932;7.810;2023-04-15T02:46:00;0.60;;;0.60;;
17422;SDS011;8829;47.932;7.810;2023-04-15T02:48:27;1.33;;;0.80;;
17422;SDS011;8829;47.932;7.810;2023-04-15T02:53:38;0.87;;;0.70;;
17422;SDS011;8829;47.932;7.810;2023-04-15T02:56:05;3.23;;;0.97;;
17422;SDS011;8829;47.932;7.810;2023-04-15T02:58:32;1.00;;;0.87;;
17422;SDS011;8829;47.932;7.810;2023-04-15T03:01:00;1.47;;;0.90;;
17422;SDS011;8829;47.932;7.810;2023-04-15T03:03:26;0.80;;;0.80;;
17422;SDS011;8829;47.932;7.810;2023-04-15T03:05:53;2.43;;;0.80;;
17422;SDS011;8829;47.932;7.810;2023-04-15T03:08:21;0.73;;;0.73;;
17422;SDS011;8829;47.932;7.810;2023-04-15T03:10:48;0.70;;;0.70;;
17422;SDS011;8829;47.932;7.810;2023-04-15T03:13:16;1.60;;;0.80;;
17422;SDS011;8829;47.932;7.810;2023-04-15T03:15:44;2.30;;;0.80;;
17422;SDS011;8829;47.932;7.810;2023-04-15T03:18:11;2.10;;;1.00;;
17422;SDS011;8829;47.932;7.810;2023-04-15T03:20:38;1.40;;;0.70;;
17422;SDS011;8829;47.932;7.810;2023-04-15T03:23:05;1.10;;;1.00;;
17422;SDS011;8829;47.932;7.810;2023-04-15T03:25:33;0.67;;;0.67;;
17422;SDS011;8829;47.932;7.810;2023-04-15T03:28:01;0.80;;;0.80;;
17422;SDS011;8829;47.932;7.810;2023-04-15T03:30:28;0.73;;;0.73;;
17422;SDS011;8829;47.932;7.810;2023-04-15T03:32:54;2.73;;;0.90;;
17422;SDS011;8829;47.932;7.810;2023-04-15T03:35:21;1.67;;;1.10;;
17422;SDS011;8829;47.932;7.810;2023-04-15T03:37:48;0.93;;;0.70;;
17422;SDS011;8829;47.932;7.810;2023-04-15T03:40:15;0.70;;;0.70;;
17422;SDS011;8829;47.932;7.810;2023-04-15T03:42:43;1.00;;;0.83;;
17422;SDS011;8829;47.932;7.810;2023-04-15T03:45:10;0.70;;;0.70;;
17422;SDS011;8829;47.932;7.810;2023-04-15T03:47:37;2.30;;;0.80;;
17422;SDS011;8829;47.932;7.810;2023-04-15T03:50:04;0.87;;;0.80;;
17422;SDS011;8829;47.932;7.810;2023-04-15T03:52:31;0.77;;;0.77;;
17422;SDS011;8829;47.932;7.810;2023-04-15T03:54:58;0.90;;;0.90;;
17422;SDS011;8829;47.932;7.810;2023-04-15T03:57:24;1.63;;;0.93;;
17422;SDS011;8829;47.932;7.810;2023-04-15T03:59:52;0.83;;;0.83;;
17422;SDS011;8829;47.932;7.810;2023-04-15T04:02:19;1.93;;;1.00;;
17422;SDS011;8829;47.932;7.810;2023-04-15T04:04:47;1.50;;;1.40;;
17422;SDS011;8829;47.932;7.810;2023-04-15T04:07:14;0.90;;;0.87;;
17422;SDS011;8829;47.932;7.810;2023-04-15T04:09:41;1.67;;;1.13;;
17422;SDS011;8829;47.932;7.810;2023-04-15T04:12:08;2.57;;;0.90;;
17422;SDS011;8829;47.932;7.810;2023-04-15T04:14:35;0.60;;;0.60;;
17422;SDS011;8829;47.932;7.810;2023-04-15T04:17:03;1.07;;;0.70;;
17422;SDS011;8829;47.932;7.810;2023-04-15T04:19:30;1.37;;;0.70;;
17422;SDS011;8829;47.932;7.810;2023-04-15T04:21:56;1.43;;;0.60;;
17422;SDS011;8829;47.932;7.810;2023-04-15T04:24:23;1.10;;;0.80;;
17422;SDS011;8829;47.932;7.810;2023-04-15T04:26:50;2.77;;;0.80;;
17422;SDS011;8829;47.932;7.810;2023-04-15T04:29:17;0.60;;;0.60;;
17422;SDS011;8829;47.932;7.810;2023-04-15T04:31:43;1.27;;;0.80;;
17422;SDS011;8829;47.932;7.810;2023-04-15T04:34:13;0.70;;;0.70;;
17422;SDS011;8829;47.932;7.810;2023-04-15T04:36:40;0.50;;;0.50;;
17422;SDS011;8829;47.932;7.810;2023-04-15T04:39:07;0.70;;;0.60;;
17422;SDS011;8829;47.932;7.810;2023-04-15T04:41:33;0.63;;;0.63;;
17422;SDS011;8829;47.932;7.810;2023-04-15T04:44:00;1.50;;;0.67;;
17422;SDS011;8829;47.932;7.810;2023-04-15T04:46:27;1.60;;;0.60;;
17422;SDS011;8829;47.932;7.810;2023-04-15T04:48:54;0.70;;;0.67;;
17422;SDS011;8829;47.932;7.810;2023-04-15T04:51:22;0.77;;;0.70;;
17422;SDS011;8829;47.932;7.810;2023-04-15T04:53:49;2.13;;;0.90;;
17422;SDS011;8829;47.932;7.810;2023-04-15T04:56:15;2.00;;;0.60;;
17422;SDS011;8829;47.932;7.810;2023-04-15T04:58:42;3.37;;;1.10;;
17422;SDS011;8829;47.932;7.810;2023-04-15T05:01:09;0.70;;;0.70;;
17422;SDS011;8829;47.932;7.810;2023-04-15T05:03:35;0.80;;;0.80;;
17422;SDS011;8829;47.932;7.810;2023-04-15T05:06:03;1.00;;;1.00;;
17422;SDS011;8829;47.932;7.810;2023-04-15T05:08:32;1.77;;;0.90;;
17422;SDS011;8829;47.932;7.810;2023-04-15T05:11:00;1.03;;;1.00;;
17422;SDS011;8829;47.932;7.810;2023-04-15T05:13:27;1.77;;;0.90;;
17422;SDS011;8829;47.932;7.810;2023-04-15T05:15:54;0.80;;;0.80;;
17422;SDS011;8829;47.932;7.810;2023-04-15T05:18:20;2.40;;;1.50;;
17422;SDS011;8829;47.932;7.810;2023-04-15T05:20:47;0.80;;;0.80;;
17422;SDS011;8829;47.932;7.810;2023-04-15T05:23:14;1.83;;;0.60;;
17422;SDS011;8829;47.932;7.810;2023-04-15T05:25:43;0.93;;;0.70;;
17422;SDS011;8829;47.932;7.810;2023-04-15T05:28:09;0.80;;;0.80;;
17422;SDS011;8829;47.932;7.810;2023-04-15T05:30:36;0.90;;;0.90;;
17422;SDS011;8829;47.932;7.810;2023-04-15T05:33:03;1.00;;;0.90;;
17422;SDS011;8829;47.932;7.810;2023-04-15T05:35:30;1.10;;;0.87;;
17422;SDS011;8829;47.932;7.810;2023-04-15T05:37:57;1.17;;;0.90;;
17422;SDS011;8829;47.932;7.810;2023-04-15T05:40:24;1.10;;;0.60;;
17422;SDS011;8829;47.932;7.810;2023-04-15T05:42:52;1.07;;;0.63;;
17422;SDS011;8829;47.932;7.810;2023-04-15T05:45:19;1.03;;;0.70;;
17422;SDS011;8829;47.932;7.810;2023-04-15T05:47:46;1.70;;;0.70;;
17422;SDS011;8829;47.932;7.810;2023-04-15T05:50:14;1.50;;;1.00;;
17422;SDS011;8829;47.932;7.810;2023-04-15T05:52:41;2.27;;;1.00;;
17422;SDS011;8829;47.932;7.810;2023-04-15T05:55:08;0.80;;;0.70;;
17422;SDS011;8829;47.932;7.810;2023-04-15T05:57:35;1.47;;;0.87;;
17422;SDS011;8829;47.932;7.810;2023-04-15T06:00:03;2.47;;;1.50;;
17422;SDS011;8829;47.932;7.810;2023-04-15T06:02:31;1.50;;;1.10;;
17422;SDS011;8829;47.932;7.810;2023-04-15T06:04:58;1.20;;;1.10;;
17422;SDS011;8829;47.932;7.810;2023-04-15T06:07:24;1.97;;;1.40;;
17422;SDS011;8829;47.932;7.810;2023-04-15T06:09:51;3.67;;;1.43;;
17422;SDS011;8829;47.932;7.810;2023-04-15T06:12:18;1.00;;;1.00;;
17422;SDS011;8829;47.932;7.810;2023-04-15T06:14:44;1.47;;;1.00;;
17422;SDS011;8829;47.932;7.810;2023-04-15T06:17:12;1.63;;;1.30;;
17422;SDS011;8829;47.932;7.810;2023-04-15T06:19:42;1.93;;;1.83;;
17422;SDS011;8829;47.932;7.810;2023-04-15T06:22:09;1.83;;;1.70;;
17422;SDS011;8829;47.932;7.810;2023-04-15T06:24:35;1.17;;;1.10;;
17422;SDS011;8829;47.932;7.810;2023-04-15T06:27:02;1.73;;;1.23;;
17422;SDS011;8829;47.932;7.810;2023-04-15T06:29:29;1.10;;;1.00;;
17422;SDS011;8829;47.932;7.810;2023-04-15T06:31:55;0.90;;;0.90;;
17422;SDS011;8829;47.932;7.810;2023-04-15T06:34:23;1.60;;;1.50;;
17422;SDS011;8829;47.932;7.810;2023-04-15T06:36:50;1.40;;;1.30;;
17422;SDS011;8829;47.932;7.810;2023-04-15T06:39:18;3.10;;;1.10;;
17422;SDS011;8829;47.932;7.810;2023-04-15T06:41:45;1.70;;;0.97;;
17422;SDS011;8829;47.932;7.810;2023-04-15T06:44:12;1.17;;;0.90;;
17422;SDS011;8829;47.932;7.810;2023-04-15T06:46:38;2.73;;;1.13;;
17422;SDS011;8829;47.932;7.810;2023-04-15T06:49:05;1.23;;;0.90;;
17422;SDS011;8829;47.932;7.810;2023-04-15T06:51:34;6.03;;;1.10;;
17422;SDS011;8829;47.932;7.810;2023-04-15T06:54:01;1.97;;;1.03;;
17422;SDS011;8829;47.932;7.810;2023-04-15T06:56:29;2.50;;;0.87;;
17422;SDS011;8829;47.932;7.810;2023-04-15T06:58:56;0.70;;;0.70;;
17422;SDS011;8829;47.932;7.810;2023-04-15T07:01:23;1.43;;;0.83;;
17422;SDS011;8829;47.932;7.810;2023-04-15T07:03:50;1.30;;;0.80;;
17422;SDS011;8829;47.932;7.810;2023-04-15T07:06:16;2.43;;;0.97;;
17422;SDS011;8829;47.932;7.810;2023-04-15T07:08:45;1.77;;;0.90;;
17422;SDS011;8829;47.932;7.810;2023-04-15T07:11:12;2.77;;;0.80;;
17422;SDS011;8829;47.932;7.810;2023-04-15T07:13:39;1.10;;;1.00;;
17422;SDS011;8829;47.932;7.810;2023-04-15T07:16:05;2.57;;;0.87;;
17422;SDS011;8829;47.932;7.810;2023-04-15T07:18:32;2.03;;;0.90;;
17422;SDS011;8829;47.932;7.810;2023-04-15T07:20:59;4.47;;;1.07;;
17422;SDS011;8829;47.932;7.810;2023-04-15T07:23:26;1.97;;;0.83;;
17422;SDS011;8829;47.932;7.810;2023-04-15T07:25:54;0.90;;;0.90;;
17422;SDS011;8829;47.932;7.810;2023-04-15T07:28:21;3.03;;;1.00;;
17422;SDS011;8829;47.932;7.810;2023-04-15T07:30:48;2.10;;;1.30;;
17422;SDS011;8829;47.932;7.810;2023-04-15T07:33:15;4.07;;;1.10;;
17422;SDS011;8829;47.932;7.810;2023-04-15T07:35:41;0.70;;;0.70;;
17422;SDS011;8829;47.932;7.810;2023-04-15T07:38:09;2.57;;;0.90;;
17422;SDS011;8829;47.932;7.810;2023-04-15T07:40:36;2.67;;;1.20;;
17422;SDS011;8829;47.932;7.810;2023-04-15T07:43:05;1.90;;;1.20;;
17422;SDS011;8829;47.932;7.810;2023-04-15T07:45:32;1.77;;;0.93;;
17422;SDS011;8829;47.932;7.810;2023-04-15T07:47:59;0.87;;;0.80;;
17422;SDS011;8829;47.932;7.810;2023-04-15T07:50:27;0.70;;;0.70;;
17422;SDS011;8829;47.932;7.810;2023-04-15T07:52:54;2.17;;;0.90;;
17422;SDS011;8829;47.932;7.810;2023-04-15T07:55:21;1.23;;;1.03;;
17422;SDS011;8829;47.932;7.810;2023-04-15T07:57:48;0.80;;;0.80;;
17422;SDS011;8829;47.932;7.810;2023-04-15T08:00:17;2.30;;;0.80;;
17422;SDS011;8829;47.932;7.810;2023-04-15T08:02:44;0.90;;;0.90;;
17422;SDS011;8829;47.932;7.810;2023-04-15T08:05:12;3.13;;;1.00;;
17422;SDS011;8829;47.932;7.810;2023-04-15T08:07:39;1.37;;;1.07;;
17422;SDS011;8829;47.932;7.810;2023-04-15T08:10:06;1.20;;;1.10;;
17422;SDS011;8829;47.932;7.810;2023-04-15T08:12:33;0.97;;;0.80;;
17422;SDS011;8829;47.932;7.810;2023-04-15T08:15:00;1.00;;;1.00;;
17422;SDS011;8829;47.932;7.810;2023-04-15T08:17:28;1.33;;;1.00;;
17422;SDS011;8829;47.932;7.810;2023-04-15T08:19:55;2.47;;;1.57;;
17422;SDS011;8829;47.932;7.810;2023-04-15T08:22:21;1.23;;;1.17;;
17422;SDS011;8829;47.932;7.810;2023-04-15T08:24:48;3.77;;;0.90;;
17422;SDS011;8829;47.932;7.810;2023-04-15T08:27:16;1.10;;;1.10;;
17422;SDS011;8829;47.932;7.810;2023-04-15T08:29:42;1.13;;;1.13;;
17422;SDS011;8829;47.932;7.810;2023-04-15T08:32:10;1.73;;;1.33;;
17422;SDS011;8829;47.932;7.810;2023-04-15T08:34:38;1.23;;;0.83;;
17422;SDS011;8829;47.932;7.810;2023-04-15T08:37:05;2.10;;;0.80;;
17422;SDS011;8829;47.932;7.810;2023-04-15T08:39:32;1.70;;;1.10;;
17422;SDS011;8829;47.932;7.810;2023-04-15T08:41:59;1.40;;;1.30;;
17422;SDS011;8829;47.932;7.810;2023-04-15T08:44:28;4.40;;;1.40;;
17422;SDS011;8829;47.932;7.810;2023-04-15T08:46:57;1.60;;;1.50;;
17422;SDS011;8829;47.932;7.810;2023-04-15T08:49:26;1.80;;;1.70;;
17422;SDS011;8829;47.932;7.810;2023-04-15T08:51:55;2.50;;;1.97;;
17422;SDS011;8829;47.932;7.810;2023-04-15T08:54:24;2.33;;;2.00;;
17422;SDS011;8829;47.932;7.810;2023-04-15T08:56:52;2.07;;;1.93;;
17422;SDS011;8829;47.932;7.810;2023-04-15T08:59:19;5.93;;;4.03;;
17422;SDS011;8829;47.932;7.810;2023-04-15T09:01:47;3.00;;;2.63;;
17422;SDS011;8829;47.932;7.810;2023-04-15T09:04:14;2.90;;;1.80;;
17422;SDS011;8829;47.932;7.810;2023-04-15T09:06:42;4.33;;;3.87;;
17422;SDS011;8829;47.932;7.810;2023-04-15T09:09:10;9.17;;;5.90;;
17422;SDS011;8829;47.932;7.810;2023-04-15T09:11:38;1.80;;;1.70;;
17422;SDS011;8829;47.932;7.810;2023-04-15T09:14:05;2.53;;;1.70;;
17422;SDS011;8829;47.932;7.810;2023-04-15T09:16:31;2.23;;;1.67;;
17422;SDS011;8829;47.932;7.810;2023-04-15T09:19:21;1.97;;;1.73;;
17422;SDS011;8829;47.932;7.810;2023-04-15T09:21:49;2.80;;;1.50;;
17422;SDS011;8829;47.932;7.810;2023-04-15T09:24:17;2.40;;;1.20;;
17422;SDS011;8829;47.932;7.810;2023-04-15T09:26:44;1.93;;;1.50;;
17422;SDS011;8829;47.932;7.810;2023-04-15T09:29:11;3.23;;;1.43;;
17422;SDS011;8829;47.932;7.810;2023-04-15T09:31:38;1.30;;;1.20;;
17422;SDS011;8829;47.932;7.810;2023-04-15T09:34:06;6.37;;;1.90;;
17422;SDS011;8829;47.932;7.810;2023-04-15T09:36:37;1.53;;;1.40;;
17422;SDS011;8829;47.932;7.810;2023-04-15T09:39:18;7.57;;;2.67;;
17422;SDS011;8829;47.932;7.810;2023-04-15T09:41:45;5.00;;;1.70;;
17422;SDS011;8829;47.932;7.810;2023-04-15T09:44:21;5.80;;;1.90;;
17422;SDS011;8829;47.932;7.810;2023-04-15T09:46:48;3.73;;;1.90;;
17422;SDS011;8829;47.932;7.810;2023-04-15T09:49:14;7.63;;;2.23;;
17422;SDS011;8829;47.932;7.810;2023-04-15T09:51:41;5.40;;;2.40;;
17422;SDS011;8829;47.932;7.810;2023-04-15T09:54:08;4.43;;;1.87;;
17422;SDS011;8829;47.932;7.810;2023-04-15T09:56:37;3.23;;;1.50;;
17422;SDS011;8829;47.932;7.810;2023-04-15T09:59:06;3.93;;;1.70;;
17422;SDS011;8829;47.932;7.810;2023-04-15T10:01:33;5.90;;;1.70;;
17422;SDS011;8829;47.932;7.810;2023-04-15T10:04:01;3.40;;;1.60;;
17422;SDS011;8829;47.932;7.810;2023-04-15T10:06:29;2.80;;;2.00;;
17422;SDS011;8829;47.932;7.810;2023-04-15T10:08:56;2.63;;;2.00;;
17422;SDS011;8829;47.932;7.810;2023-04-15T10:11:26;4.57;;;1.90;;
17422;SDS011;8829;47.932;7.810;2023-04-15T10:13:55;1.60;;;1.37;;
17422;SDS011;8829;47.932;7.810;2023-04-15T10:16:25;2.63;;;1.80;;
17422;SDS011;8829;47.932;7.810;2023-04-15T10:18:53;2.00;;;1.80;;
17422;SDS011;8829;47.932;7.810;2023-04-15T10:21:21;2.33;;;1.80;;
17422;SDS011;8829;47.932;7.810;2023-04-15T10:23:48;2.10;;;1.60;;
17422;SDS011;8829;47.932;7.810;2023-04-15T10:26:16;5.90;;;2.43;;
17422;SDS011;8829;47.932;7.810;2023-04-15T10:28:43;2.23;;;2.03;;
17422;SDS011;8829;47.932;7.810;2023-04-15T10:31:12;3.27;;;1.77;;
17422;SDS011;8829;47.932;7.810;2023-04-15T10:33:40;1.30;;;1.20;;
17422;SDS011;8829;47.932;7.810;2023-04-15T10:36:07;2.60;;;1.60;;
17422;SDS011;8829;47.932;7.810;2023-04-15T10:38:37;3.10;;;1.60;;
17422;SDS011;8829;47.932;7.810;2023-04-15T10:41:15;1.83;;;1.57;;
17422;SDS011;8829;47.932;7.810;2023-04-15T10:43:48;1.60;;;1.50;;
17422;SDS011;8829;47.932;7.810;2023-04-15T10:46:20;4.90;;;1.67;;
17422;SDS011;8829;47.932;7.810;2023-04-15T10:48:51;1.80;;;1.70;;
17422;SDS011;8829;47.932;7.810;2023-04-15T10:54:07;1.90;;;1.70;;
17422;SDS011;8829;47.932;7.810;2023-04-15T10:56:40;1.63;;;1.47;;
17422;SDS011;8829;47.932;7.810;2023-04-15T10:59:08;2.00;;;1.80;;
17422;SDS011;8829;47.932;7.810;2023-04-15T11:01:55;2.40;;;1.70;;
17422;SDS011;8829;47.932;7.810;2023-04-15T11:07:33;5.00;;;2.37;;
17422;SDS011;8829;47.932;7.810;2023-04-15T11:10:01;1.90;;;1.50;;
17422;SDS011;8829;47.932;7.810;2023-04-15T11:12:34;2.60;;;2.00;;
17422;SDS011;8829;47.932;7.810;2023-04-15T11:17:55;2.93;;;1.93;;
17422;SDS011;8829;47.932;7.810;2023-04-15T11:20:22;2.50;;;1.90;;
17422;SDS011;8829;47.932;7.810;2023-04-15T11:22:49;2.63;;;1.77;;
17422;SDS011;8829;47.932;7.810;2023-04-15T11:25:21;2.67;;;1.90;;
17422;SDS011;8829;47.932;7.810;2023-04-15T11:27:48;2.50;;;1.83;;
17422;SDS011;8829;47.932;7.810;2023-04-15T11:30:17;2.70;;;1.57;;
17422;SDS011;8829;47.932;7.810;2023-04-15T11:32:46;2.67;;;1.93;;
17422;SDS011;8829;47.932;7.810;2023-04-15T11:35:14;2.23;;;1.67;;
17422;SDS011;8829;47.932;7.810;2023-04-15T11:37:42;3.30;;;1.90;;
17422;SDS011;8829;47.932;7.810;2023-04-15T11:40:09;2.13;;;1.93;;
17422;SDS011;8829;47.932;7.810;2023-04-15T11:42:36;2.30;;;1.93;;
17422;SDS011;8829;47.932;7.810;2023-04-15T11:45:06;2.80;;;2.07;;
17422;SDS011;8829;47.932;7.810;2023-04-15T11:47:33;4.10;;;2.33;;
17422;SDS011;8829;47.932;7.810;2023-04-15T11:50:13;5.17;;;1.97;;
17422;SDS011;8829;47.932;7.810;2023-04-15T11:52:53;3.93;;;2.10;;
17422;SDS011;8829;47.932;7.810;2023-04-15T11:55:21;2.40;;;2.13;;
17422;SDS011;8829;47.932;7.810;2023-04-15T11:57:49;2.33;;;1.90;;
17422;SDS011;8829;47.932;7.810;2023-04-15T12:00:15;3.73;;;1.97;;
17422;SDS011;8829;47.932;7.810;2023-04-15T12:02:42;3.63;;;2.30;;
17422;SDS011;8829;47.932;7.810;2023-04-15T12:05:09;1.93;;;1.70;;
17422;SDS011;8829;47.932;7.810;2023-04-15T12:10:25;2.73;;;1.80;;
17422;SDS011;8829;47.932;7.810;2023-04-15T12:12:52;1.90;;;1.80;;
17422;SDS011;8829;47.932;7.810;2023-04-15T12:15:20;4.53;;;2.30;;
17422;SDS011;8829;47.932;7.810;2023-04-15T12:17:48;5.63;;;2.20;;
17422;SDS011;8829;47.932;7.810;2023-04-15T12:20:20;2.40;;;1.53;;
17422;SDS011;8829;47.932;7.810;2023-04-15T12:22:50;1.63;;;1.53;;
17422;SDS011;8829;47.932;7.810;2023-04-15T12:25:18;1.77;;;1.67;;
17422;SDS011;8829;47.932;7.810;2023-04-15T12:27:57;3.13;;;1.60;;
17422;SDS011;8829;47.932;7.810;2023-04-15T12:30:24;3.50;;;2.10;;
17422;SDS011;8829;47.932;7.810;2023-04-15T12:32:51;1.70;;;1.60;;
17422;SDS011;8829;47.932;7.810;2023-04-15T12:35:18;1.90;;;1.80;;
17422;SDS011;8829;47.932;7.810;2023-04-15T12:37:45;2.20;;;1.87;;
17422;SDS011;8829;47.932;7.810;2023-04-15T12:40:12;2.83;;;1.90;;
17422;SDS011;8829;47.932;7.810;2023-04-15T12:42:40;3.30;;;2.10;;
17422;SDS011;8829;47.932;7.810;2023-04-15T12:45:07;3.73;;;1.67;;
17422;SDS011;8829;47.932;7.810;2023-04-15T12:47:33;1.97;;;1.43;;
17422;SDS011;8829;47.932;7.810;2023-04-15T12:50:01;2.27;;;1.63;;
17422;SDS011;8829;47.932;7.810;2023-04-15T12:52:27;4.73;;;2.37;;
17422;SDS011;8829;47.932;7.810;2023-04-15T12:54:54;2.17;;;1.97;;
17422;SDS011;8829;47.932;7.810;2023-04-15T12:57:21;2.90;;;2.30;;
17422;SDS011;8829;47.932;7.810;2023-04-15T12:59:49;2.20;;;2.00;;
17422;SDS011;8829;47.932;7.810;2023-04-15T13:02:15;2.37;;;1.93;;
17422;SDS011;8829;47.932;7.810;2023-04-15T13:04:42;5.33;;;3.30;;
17422;SDS011;8829;47.932;7.810;2023-04-15T13:07:09;2.33;;;2.13;;
17422;SDS011;8829;47.932;7.810;2023-04-15T13:09:37;3.20;;;2.20;;
17422;SDS011;8829;47.932;7.810;2023-04-15T13:12:04;3.47;;;1.70;;
17422;SDS011;8829;47.932;7.810;2023-04-15T13:14:31;1.93;;;1.63;;
17422;SDS011;8829;47.932;7.810;2023-04-15T13:16:59;1.80;;;1.70;;
17422;SDS011;8829;47.932;7.810;2023-04-15T13:19:26;2.27;;;2.07;;
17422;SDS011;8829;47.932;7.810;2023-04-15T13:21:53;2.47;;;1.80;;
17422;SDS011;8829;47.932;7.810;2023-04-15T13:24:20;1.97;;;1.60;;
17422;SDS011;8829;47.932;7.810;2023-04-15T13:26:46;2.87;;;1.60;;
17422;SDS011;8829;47.932;7.810;2023-04-15T13:29:13;2.10;;;1.80;;
17422;SDS011;8829;47.932;7.810;2023-04-15T13:31:40;2.97;;;2.00;;
17422;SDS011;8829;47.932;7.810;2023-04-15T13:34:08;1.90;;;1.80;;
17422;SDS011;8829;47.932;7.810;2023-04-15T13:36:34;3.07;;;1.80;;
17422;SDS011;8829;47.932;7.810;2023-04-15T13:39:01;2.20;;;1.70;;
17422;SDS011;8829;47.932;7.810;2023-04-15T13:41:29;1.97;;;1.80;;
17422;SDS011;8829;47.932;7.810;2023-04-15T13:43:56;2.47;;;1.73;;
17422;SDS011;8829;47.932;7.810;2023-04-15T13:46:23;1.90;;;1.77;;
17422;SDS011;8829;47.932;7.810;2023-04-15T13:48:50;3.63;;;2.40;;
17422;SDS011;8829;47.932;7.810;2023-04-15T13:51:18;4.73;;;2.07;;
17422;SDS011;8829;47.932;7.810;2023-04-15T13:53:45;2.20;;;2.00;;
17422;SDS011;8829;47.932;7.810;2023-04-15T13:56:11;2.73;;;1.80;;
17422;SDS011;8829;47.932;7.810;2023-04-15T13:58:39;2.83;;;1.70;;
17422;SDS011;8829;47.932;7.810;2023-04-15T14:01:06;3.80;;;2.20;;
17422;SDS011;8829;47.932;7.810;2023-04-15T14:03:33;3.17;;;1.67;;
17422;SDS011;8829;47.932;7.810;2023-04-15T14:06:00;3.27;;;1.70;;
17422;SDS011;8829;47.932;7.810;2023-04-15T14:08:28;3.57;;;2.17;;
17422;SDS011;8829;47.932;7.810;2023-04-15T14:10:55;2.50;;;1.60;;
17422;SDS011;8829;47.932;7.810;2023-04-15T14:13:22;3.20;;;2.03;;
17422;SDS011;8829;47.932;7.810;2023-04-15T14:15:48;2.43;;;2.00;;
17422;SDS011;8829;47.932;7.810;2023-04-15T14:18:15;1.60;;;1.50;;
17422;SDS011;8829;47.932;7.810;2023-04-15T14:20:42;2.33;;;1.50;;
17422;SDS011;8829;47.932;7.810;2023-04-15T14:23:08;2.37;;;1.60;;
17422;SDS011;8829;47.932;7.810;2023-04-15T14:25:36;2.40;;;1.50;;
17422;SDS011;8829;47.932;7.810;2023-04-15T14:28:03;2.10;;;1.90;;
17422;SDS011;8829;47.932;7.810;2023-04-15T14:30:30;2.03;;;1.70;;
17422;SDS011;8829;47.932;7.810;2023-04-15T14:32:57;2.47;;;1.73;;
17422;SDS011;8829;47.932;7.810;2023-04-15T14:35:23;2.00;;;1.40;;
17422;SDS011;8829;47.932;7.810;2023-04-15T14:37:51;2.57;;;1.83;;
17422;SDS011;8829;47.932;7.810;2023-04-15T14:40:18;3.53;;;1.60;;
17422;SDS011;8829;47.932;7.810;2023-04-15T14:42:46;2.20;;;1.53;;
17422;SDS011;8829;47.932;7.810;2023-04-15T14:45:13;4.70;;;1.90;;
17422;SDS011;8829;47.932;7.810;2023-04-15T14:47:40;2.30;;;1.50;;
17422;SDS011;8829;47.932;7.810;2023-04-15T14:50:07;1.50;;;1.40;;
17422;SDS011;8829;47.932;7.810;2023-04-15T14:52:34;1.70;;;1.40;;
17422;SDS011;8829;47.932;7.810;2023-04-15T14:55:04;2.30;;;1.20;;
17422;SDS011;8829;47.932;7.810;2023-04-15T14:57:31;1.87;;;1.27;;
17422;SDS011;8829;47.932;7.810;2023-04-15T14:59:59;3.37;;;2.03;;
17422;SDS011;8829;47.932;7.810;2023-04-15T15:02:26;2.27;;;1.73;;
17422;SDS011;8829;47.932;7.810;2023-04-15T15:04:53;4.07;;;1.93;;
17422;SDS011;8829;47.932;7.810;2023-04-15T15:07:21;2.03;;;1.40;;
17422;SDS011;8829;47.932;7.810;2023-04-15T15:09:47;3.93;;;3.30;;
17422;SDS011;8829;47.932;7.810;2023-04-15T15:12:14;3.43;;;2.10;;
17422;SDS011;8829;47.932;7.810;2023-04-15T15:14:41;3.00;;;2.40;;
17422;SDS011;8829;47.932;7.810;2023-04-15T15:17:09;3.80;;;2.43;;